Hovedside
METAR-TAF:

METAR-TAF

Lufthavner :

Vitebsk, Hviterussland

breddegrad: 55-10N, lengdegrad: 030-13E, høyde over havet: 176 m

Gjeldene værobservasjon

Denne rapporten ble laget for 3 timer og 53 minutter siden, klokken 16:00 UTC
Vind 2 kt fra Vest
Temperatur 19°C
Luftfuktighet 88%
Trykk 1019 hPa
Sikt: 6000 m
Spredte skyer i en høyde av 2600 ft, Bygeskyer.

METAR: UMII 161600Z 27001MPS 6000 SCT026CB 19/17 Q1019 TEMPO 2000 SHRA BKN005

Tid: 22:53 (19:53 UTC)

Varsel

Denne rapporten ble laget for 5 timer og 43 minutter siden, klokken 14:10 UTC
Varsel gyldig fra 16. klokken 15 UTC til 16. klokken 24 UTC
Vind 10 kt fra Nord
Sikt: 8000 m
Brutte skyer i en høyde av 1500 ft
Midlertidig
fra 16. klokken 15 UTC til 16. klokken 24 UTC
Vind 23 kt fra skiftende retning
Sikt: 2000 m
Brutte skyer i en høyde av 500 ft
Brutte skyer i en høyde av 1200 ft, Bygeskyer.
regnbyger

TAF: UMII 161410Z 1615/1624 36005MPS 8000 BKN015 TEMPO 1615/1624 VRB12MPS 2000 SHRA BKN005 BKN012CB

Værobservasjoner og værvarsel for over 4000 flyplasser (METAR- og TAF-rapporter).

Tilgjengelige stasjoner er representert av de røde og gule prikkene på kartet.

Hold musepekeren over prikken for å se navnet på stasjonen.

Klikk så for å se værobservasjoner og -varsler.

For å forandre kartet kan du klikke på den grønne knappen med svart kryss for å zoome inn, på den grønne knappen med strek for å zoome ut, eller på de grønne pilene for å se tilstøtende kart.


METAR-TAF: